sensor_id;sensor_type;location;lat;lon;timestamp;temperature;humidity
33994;DHT22;20673;48.980;8.138;2024-02-26T00:00:44;7.70;1.00
33994;DHT22;20673;48.980;8.138;2024-02-26T00:03:12;7.70;1.00
33994;DHT22;20673;48.980;8.138;2024-02-26T00:05:38;7.70;1.00
33994;DHT22;20673;48.980;8.138;2024-02-26T00:08:05;7.70;1.00
33994;DHT22;20673;48.980;8.138;2024-02-26T00:10:31;7.70;1.00
33994;DHT22;20673;48.980;8.138;2024-02-26T00:12:58;7.60;1.00
33994;DHT22;20673;48.980;8.138;2024-02-26T00:15:24;7.60;1.00
33994;DHT22;20673;48.980;8.138;2024-02-26T00:17:50;7.60;1.00
33994;DHT22;20673;48.980;8.138;2024-02-26T00:20:16;7.60;1.00
33994;DHT22;20673;48.980;8.138;2024-02-26T00:22:42;7.60;1.00
33994;DHT22;20673;48.980;8.138;2024-02-26T00:25:09;7.50;1.00
33994;DHT22;20673;48.980;8.138;2024-02-26T00:27:35;7.40;4.40
33994;DHT22;20673;48.980;8.138;2024-02-26T00:30:01;7.40;1.00
33994;DHT22;20673;48.980;8.138;2024-02-26T00:32:27;7.50;1.00
33994;DHT22;20673;48.980;8.138;2024-02-26T00:34:53;7.50;1.00
33994;DHT22;20673;48.980;8.138;2024-02-26T00:37:19;7.50;1.00
33994;DHT22;20673;48.980;8.138;2024-02-26T00:39:45;7.50;13.70
33994;DHT22;20673;48.980;8.138;2024-02-26T00:42:12;7.40;36.10
33994;DHT22;20673;48.980;8.138;2024-02-26T00:44:38;7.40;19.70
33994;DHT22;20673;48.980;8.138;2024-02-26T00:47:04;7.40;51.70
33994;DHT22;20673;48.980;8.138;2024-02-26T00:49:30;7.40;39.20
33994;DHT22;20673;48.980;8.138;2024-02-26T00:51:56;7.50;1.00
33994;DHT22;20673;48.980;8.138;2024-02-26T00:54:22;7.60;1.00
33994;DHT22;20673;48.980;8.138;2024-02-26T00:56:48;7.80;1.00
33994;DHT22;20673;48.980;8.138;2024-02-26T00:59:15;8.00;1.00
33994;DHT22;20673;48.980;8.138;2024-02-26T01:01:41;8.20;1.00
33994;DHT22;20673;48.980;8.138;2024-02-26T01:04:07;8.30;1.00
33994;DHT22;20673;48.980;8.138;2024-02-26T01:06:33;8.30;1.00
33994;DHT22;20673;48.980;8.138;2024-02-26T01:08:59;8.50;1.00
33994;DHT22;20673;48.980;8.138;2024-02-26T01:11:25;8.50;1.00
33994;DHT22;20673;48.980;8.138;2024-02-26T01:13:52;8.60;1.00
33994;DHT22;20673;48.980;8.138;2024-02-26T01:16:20;8.60;1.00
33994;DHT22;20673;48.980;8.138;2024-02-26T01:18:46;8.60;1.00
33994;DHT22;20673;48.980;8.138;2024-02-26T01:21:12;8.50;1.00
33994;DHT22;20673;48.980;8.138;2024-02-26T01:23:38;8.40;1.00
33994;DHT22;20673;48.980;8.138;2024-02-26T01:26:04;8.30;14.50
33994;DHT22;20673;48.980;8.138;2024-02-26T01:28:30;8.20;21.90
33994;DHT22;20673;48.980;8.138;2024-02-26T01:30:57;8.20;28.50
33994;DHT22;20673;48.980;8.138;2024-02-26T01:33:25;8.10;34.20
33994;DHT22;20673;48.980;8.138;2024-02-26T01:35:52;8.10;41.80
33994;DHT22;20673;48.980;8.138;2024-02-26T01:38:18;8.10;44.00
33994;DHT22;20673;48.980;8.138;2024-02-26T01:40:45;8.00;67.00
33994;DHT22;20673;48.980;8.138;2024-02-26T01:43:11;8.00;99.90
33994;DHT22;20673;48.980;8.138;2024-02-26T01:45:37;8.00;93.70
33994;DHT22;20673;48.980;8.138;2024-02-26T01:48:03;7.90;99.90
33994;DHT22;20673;48.980;8.138;2024-02-26T01:50:30;7.90;99.90
33994;DHT22;20673;48.980;8.138;2024-02-26T01:52:56;7.80;99.90
33994;DHT22;20673;48.980;8.138;2024-02-26T01:55:24;7.80;99.90
33994;DHT22;20673;48.980;8.138;2024-02-26T01:57:52;7.80;99.90
33994;DHT22;20673;48.980;8.138;2024-02-26T02:00:20;7.80;99.90
33994;DHT22;20673;48.980;8.138;2024-02-26T02:02:48;7.80;99.90
33994;DHT22;20673;48.980;8.138;2024-02-26T02:05:15;7.70;99.90
33994;DHT22;20673;48.980;8.138;2024-02-26T02:07:45;7.70;99.90
33994;DHT22;20673;48.980;8.138;2024-02-26T02:10:12;7.70;99.90
33994;DHT22;20673;48.980;8.138;2024-02-26T02:12:38;7.70;99.90
33994;DHT22;20673;48.980;8.138;2024-02-26T02:15:06;7.80;99.90
33994;DHT22;20673;48.980;8.138;2024-02-26T02:17:33;7.80;99.90
33994;DHT22;20673;48.980;8.138;2024-02-26T02:19:59;7.80;99.90
33994;DHT22;20673;48.980;8.138;2024-02-26T02:22:27;7.80;99.90
33994;DHT22;20673;48.980;8.138;2024-02-26T02:24:53;7.70;99.90
33994;DHT22;20673;48.980;8.138;2024-02-26T02:27:20;7.70;99.90
33994;DHT22;20673;48.980;8.138;2024-02-26T02:29:47;7.60;99.90
33994;DHT22;20673;48.980;8.138;2024-02-26T02:32:14;7.50;99.90
33994;DHT22;20673;48.980;8.138;2024-02-26T02:34:42;7.40;99.90
33994;DHT22;20673;48.980;8.138;2024-02-26T02:37:09;7.40;99.90
33994;DHT22;20673;48.980;8.138;2024-02-26T02:39:35;7.30;99.90
33994;DHT22;20673;48.980;8.138;2024-02-26T02:42:01;7.30;99.90
33994;DHT22;20673;48.980;8.138;2024-02-26T02:44:27;7.20;99.90
33994;DHT22;20673;48.980;8.138;2024-02-26T02:46:54;7.20;99.90
33994;DHT22;20673;48.980;8.138;2024-02-26T02:49:20;7.10;99.90
33994;DHT22;20673;48.980;8.138;2024-02-26T02:51:47;7.10;99.90
33994;DHT22;20673;48.980;8.138;2024-02-26T02:54:13;7.10;99.90
33994;DHT22;20673;48.980;8.138;2024-02-26T02:56:40;7.00;99.90
33994;DHT22;20673;48.980;8.138;2024-02-26T02:59:09;7.00;99.90
33994;DHT22;20673;48.980;8.138;2024-02-26T03:01:35;7.00;99.90
33994;DHT22;20673;48.980;8.138;2024-02-26T03:04:01;7.00;99.90
33994;DHT22;20673;48.980;8.138;2024-02-26T03:06:27;7.00;99.90
33994;DHT22;20673;48.980;8.138;2024-02-26T03:08:54;7.20;99.90
33994;DHT22;20673;48.980;8.138;2024-02-26T03:11:20;7.10;99.90
33994;DHT22;20673;48.980;8.138;2024-02-26T03:13:47;7.00;99.90
33994;DHT22;20673;48.980;8.138;2024-02-26T03:16:13;7.00;99.90
33994;DHT22;20673;48.980;8.138;2024-02-26T03:18:39;7.00;99.90
33994;DHT22;20673;48.980;8.138;2024-02-26T03:21:06;6.90;99.90
33994;DHT22;20673;48.980;8.138;2024-02-26T03:23:33;6.90;99.90
33994;DHT22;20673;48.980;8.138;2024-02-26T03:26:01;6.90;99.90
33994;DHT22;20673;48.980;8.138;2024-02-26T03:28:28;6.90;99.90
33994;DHT22;20673;48.980;8.138;2024-02-26T03:30:54;6.80;99.90
33994;DHT22;20673;48.980;8.138;2024-02-26T03:33:20;6.80;99.90
33994;DHT22;20673;48.980;8.138;2024-02-26T03:35:46;6.80;99.90
33994;DHT22;20673;48.980;8.138;2024-02-26T03:38:13;6.80;99.90
33994;DHT22;20673;48.980;8.138;2024-02-26T03:40:39;6.80;99.90
33994;DHT22;20673;48.980;8.138;2024-02-26T03:43:05;6.80;99.90
33994;DHT22;20673;48.980;8.138;2024-02-26T03:45:33;6.80;99.90
33994;DHT22;20673;48.980;8.138;2024-02-26T03:47:59;6.80;99.90
33994;DHT22;20673;48.980;8.138;2024-02-26T03:50:25;6.80;99.90
33994;DHT22;20673;48.980;8.138;2024-02-26T03:52:51;6.80;99.90
33994;DHT22;20673;48.980;8.138;2024-02-26T03:55:17;6.70;99.90
33994;DHT22;20673;48.980;8.138;2024-02-26T03:57:45;6.70;99.90
33994;DHT22;20673;48.980;8.138;2024-02-26T04:00:13;6.70;99.90
33994;DHT22;20673;48.980;8.138;2024-02-26T04:02:39;6.70;99.90
33994;DHT22;20673;48.980;8.138;2024-02-26T04:05:10;6.70;99.90
33994;DHT22;20673;48.980;8.138;2024-02-26T04:07:37;6.80;99.90
33994;DHT22;20673;48.980;8.138;2024-02-26T04:10:08;6.80;99.90
33994;DHT22;20673;48.980;8.138;2024-02-26T04:12:43;6.70;99.90
33994;DHT22;20673;48.980;8.138;2024-02-26T04:15:08;6.80;99.90
33994;DHT22;20673;48.980;8.138;2024-02-26T04:17:36;6.80;99.90
33994;DHT22;20673;48.980;8.138;2024-02-26T04:20:03;6.90;99.90
33994;DHT22;20673;48.980;8.138;2024-02-26T04:22:33;6.80;99.90
33994;DHT22;20673;48.980;8.138;2024-02-26T04:24:59;6.80;99.90
33994;DHT22;20673;48.980;8.138;2024-02-26T04:27:25;6.80;99.90
33994;DHT22;20673;48.980;8.138;2024-02-26T04:29:51;6.80;99.90
33994;DHT22;20673;48.980;8.138;2024-02-26T04:32:17;6.80;99.90
33994;DHT22;20673;48.980;8.138;2024-02-26T04:34:44;6.80;99.90
33994;DHT22;20673;48.980;8.138;2024-02-26T04:37:10;6.80;99.90
33994;DHT22;20673;48.980;8.138;2024-02-26T04:39:36;6.70;99.90
33994;DHT22;20673;48.980;8.138;2024-02-26T04:42:02;6.70;99.90
33994;DHT22;20673;48.980;8.138;2024-02-26T04:44:29;6.70;99.90
33994;DHT22;20673;48.980;8.138;2024-02-26T04:46:56;6.70;99.90
33994;DHT22;20673;48.980;8.138;2024-02-26T04:49:22;6.80;99.90
33994;DHT22;20673;48.980;8.138;2024-02-26T04:51:48;6.80;99.90
33994;DHT22;20673;48.980;8.138;2024-02-26T04:54:14;6.70;99.90
33994;DHT22;20673;48.980;8.138;2024-02-26T04:56:41;6.70;99.90
33994;DHT22;20673;48.980;8.138;2024-02-26T04:59:07;6.80;99.90
33994;DHT22;20673;48.980;8.138;2024-02-26T05:01:33;6.90;99.90
33994;DHT22;20673;48.980;8.138;2024-02-26T05:03:59;6.90;99.90
33994;DHT22;20673;48.980;8.138;2024-02-26T05:06:25;6.80;99.90
33994;DHT22;20673;48.980;8.138;2024-02-26T05:08:51;6.70;99.90
33994;DHT22;20673;48.980;8.138;2024-02-26T05:11:17;6.70;99.90
33994;DHT22;20673;48.980;8.138;2024-02-26T05:13:43;6.70;99.90
33994;DHT22;20673;48.980;8.138;2024-02-26T05:16:11;6.60;99.90
33994;DHT22;20673;48.980;8.138;2024-02-26T05:18:37;6.60;99.90
33994;DHT22;20673;48.980;8.138;2024-02-26T05:21:03;6.60;99.90
33994;DHT22;20673;48.980;8.138;2024-02-26T05:23:30;6.50;99.90
33994;DHT22;20673;48.980;8.138;2024-02-26T05:25:56;6.60;99.90
33994;DHT22;20673;48.980;8.138;2024-02-26T05:28:22;6.50;99.90
33994;DHT22;20673;48.980;8.138;2024-02-26T05:30:48;6.50;99.90
33994;DHT22;20673;48.980;8.138;2024-02-26T05:33:14;6.50;99.90
33994;DHT22;20673;48.980;8.138;2024-02-26T05:35:41;6.50;99.90
33994;DHT22;20673;48.980;8.138;2024-02-26T05:38:07;6.60;99.90
33994;DHT22;20673;48.980;8.138;2024-02-26T05:40:33;6.50;99.90
33994;DHT22;20673;48.980;8.138;2024-02-26T05:42:59;6.50;99.90
33994;DHT22;20673;48.980;8.138;2024-02-26T05:45:26;6.50;99.90
33994;DHT22;20673;48.980;8.138;2024-02-26T05:47:52;6.50;99.90
33994;DHT22;20673;48.980;8.138;2024-02-26T05:50:18;6.50;99.90
33994;DHT22;20673;48.980;8.138;2024-02-26T05:52:44;6.50;99.90
33994;DHT22;20673;48.980;8.138;2024-02-26T05:55:10;6.60;99.90
33994;DHT22;20673;48.980;8.138;2024-02-26T05:57:37;6.60;99.90
33994;DHT22;20673;48.980;8.138;2024-02-26T06:00:03;6.50;99.90
33994;DHT22;20673;48.980;8.138;2024-02-26T06:02:30;6.50;99.90
33994;DHT22;20673;48.980;8.138;2024-02-26T06:04:57;6.50;99.90
33994;DHT22;20673;48.980;8.138;2024-02-26T06:07:24;6.50;99.90
33994;DHT22;20673;48.980;8.138;2024-02-26T06:09:50;6.50;99.90
33994;DHT22;20673;48.980;8.138;2024-02-26T06:12:16;6.40;99.90
33994;DHT22;20673;48.980;8.138;2024-02-26T06:14:43;6.50;99.90
33994;DHT22;20673;48.980;8.138;2024-02-26T06:17:09;6.50;99.90
33994;DHT22;20673;48.980;8.138;2024-02-26T06:19:35;6.50;99.90
33994;DHT22;20673;48.980;8.138;2024-02-26T06:22:01;6.50;99.90
33994;DHT22;20673;48.980;8.138;2024-02-26T06:24:28;6.40;99.90
33994;DHT22;20673;48.980;8.138;2024-02-26T06:26:54;6.50;99.90
33994;DHT22;20673;48.980;8.138;2024-02-26T06:29:20;6.50;99.90
33994;DHT22;20673;48.980;8.138;2024-02-26T06:31:46;6.50;99.90
33994;DHT22;20673;48.980;8.138;2024-02-26T06:34:14;6.50;99.90
33994;DHT22;20673;48.980;8.138;2024-02-26T06:36:40;6.50;99.90
33994;DHT22;20673;48.980;8.138;2024-02-26T06:39:06;6.50;99.90
33994;DHT22;20673;48.980;8.138;2024-02-26T06:41:33;6.50;99.90
33994;DHT22;20673;48.980;8.138;2024-02-26T06:43:59;6.50;99.90
33994;DHT22;20673;48.980;8.138;2024-02-26T06:46:26;6.50;99.90
33994;DHT22;20673;48.980;8.138;2024-02-26T06:48:52;6.50;99.90
33994;DHT22;20673;48.980;8.138;2024-02-26T06:51:19;6.60;99.90
33994;DHT22;20673;48.980;8.138;2024-02-26T06:53:45;6.60;99.90
33994;DHT22;20673;48.980;8.138;2024-02-26T06:56:11;6.50;99.90
33994;DHT22;20673;48.980;8.138;2024-02-26T06:58:37;6.60;99.90
33994;DHT22;20673;48.980;8.138;2024-02-26T07:01:03;6.60;99.90
33994;DHT22;20673;48.980;8.138;2024-02-26T07:03:29;6.60;99.90
33994;DHT22;20673;48.980;8.138;2024-02-26T07:05:56;6.60;99.90
33994;DHT22;20673;48.980;8.138;2024-02-26T07:08:22;6.60;99.90
33994;DHT22;20673;48.980;8.138;2024-02-26T07:10:48;6.60;99.90
33994;DHT22;20673;48.980;8.138;2024-02-26T07:13:14;6.70;99.90
33994;DHT22;20673;48.980;8.138;2024-02-26T07:15:40;6.70;99.90
33994;DHT22;20673;48.980;8.138;2024-02-26T07:18:07;6.70;99.90
33994;DHT22;20673;48.980;8.138;2024-02-26T07:20:33;6.70;99.90
33994;DHT22;20673;48.980;8.138;2024-02-26T07:22:59;6.80;99.90
33994;DHT22;20673;48.980;8.138;2024-02-26T07:25:25;6.80;99.90
33994;DHT22;20673;48.980;8.138;2024-02-26T07:27:51;6.90;99.90
33994;DHT22;20673;48.980;8.138;2024-02-26T07:30:17;6.90;99.90
33994;DHT22;20673;48.980;8.138;2024-02-26T07:32:43;7.00;99.90
33994;DHT22;20673;48.980;8.138;2024-02-26T07:35:10;7.00;99.90
33994;DHT22;20673;48.980;8.138;2024-02-26T07:37:36;7.10;99.90
33994;DHT22;20673;48.980;8.138;2024-02-26T07:40:04;7.10;99.90
33994;DHT22;20673;48.980;8.138;2024-02-26T07:42:31;7.20;99.90
33994;DHT22;20673;48.980;8.138;2024-02-26T07:44:57;7.30;99.90
33994;DHT22;20673;48.980;8.138;2024-02-26T07:47:23;7.30;99.90
33994;DHT22;20673;48.980;8.138;2024-02-26T07:49:49;7.40;99.90
33994;DHT22;20673;48.980;8.138;2024-02-26T07:52:16;7.50;99.90
33994;DHT22;20673;48.980;8.138;2024-02-26T07:54:42;7.70;99.90
33994;DHT22;20673;48.980;8.138;2024-02-26T07:57:08;7.80;99.90
33994;DHT22;20673;48.980;8.138;2024-02-26T07:59:34;7.90;99.90
33994;DHT22;20673;48.980;8.138;2024-02-26T08:02:00;7.90;99.90
33994;DHT22;20673;48.980;8.138;2024-02-26T08:04:29;8.00;99.90
33994;DHT22;20673;48.980;8.138;2024-02-26T08:06:56;8.00;99.90
33994;DHT22;20673;48.980;8.138;2024-02-26T08:09:22;8.00;99.90
33994;DHT22;20673;48.980;8.138;2024-02-26T08:11:48;8.00;99.90
33994;DHT22;20673;48.980;8.138;2024-02-26T08:14:14;8.00;99.90
33994;DHT22;20673;48.980;8.138;2024-02-26T08:16:40;8.00;99.90
33994;DHT22;20673;48.980;8.138;2024-02-26T08:19:06;8.10;99.90
33994;DHT22;20673;48.980;8.138;2024-02-26T08:21:33;8.10;99.90
33994;DHT22;20673;48.980;8.138;2024-02-26T08:23:59;8.20;99.90
33994;DHT22;20673;48.980;8.138;2024-02-26T08:26:25;8.40;99.90
33994;DHT22;20673;48.980;8.138;2024-02-26T08:28:51;8.80;99.90
33994;DHT22;20673;48.980;8.138;2024-02-26T08:31:17;9.00;99.90
33994;DHT22;20673;48.980;8.138;2024-02-26T08:33:44;9.10;99.90
33994;DHT22;20673;48.980;8.138;2024-02-26T08:36:11;9.20;99.90
33994;DHT22;20673;48.980;8.138;2024-02-26T08:38:37;9.30;99.90
33994;DHT22;20673;48.980;8.138;2024-02-26T08:41:04;9.40;99.90
33994;DHT22;20673;48.980;8.138;2024-02-26T08:43:30;9.40;99.90
33994;DHT22;20673;48.980;8.138;2024-02-26T08:45:57;9.20;99.90
33994;DHT22;20673;48.980;8.138;2024-02-26T08:48:24;9.20;99.90
33994;DHT22;20673;48.980;8.138;2024-02-26T08:50:50;9.30;99.90
33994;DHT22;20673;48.980;8.138;2024-02-26T08:53:16;9.30;99.90
33994;DHT22;20673;48.980;8.138;2024-02-26T08:55:42;9.40;99.90
33994;DHT22;20673;48.980;8.138;2024-02-26T08:58:09;9.50;99.90
33994;DHT22;20673;48.980;8.138;2024-02-26T09:00:35;9.50;99.90
33994;DHT22;20673;48.980;8.138;2024-02-26T09:03:01;9.60;99.90
33994;DHT22;20673;48.980;8.138;2024-02-26T09:05:27;9.70;99.90
33994;DHT22;20673;48.980;8.138;2024-02-26T09:07:53;9.70;99.90
33994;DHT22;20673;48.980;8.138;2024-02-26T09:10:20;9.80;99.90
33994;DHT22;20673;48.980;8.138;2024-02-26T09:12:47;9.90;99.90
33994;DHT22;20673;48.980;8.138;2024-02-26T09:15:14;9.80;99.90
33994;DHT22;20673;48.980;8.138;2024-02-26T09:17:40;9.80;99.90
33994;DHT22;20673;48.980;8.138;2024-02-26T09:20:07;9.80;99.90
33994;DHT22;20673;48.980;8.138;2024-02-26T09:22:34;9.80;99.90
33994;DHT22;20673;48.980;8.138;2024-02-26T09:25:03;9.90;99.90
33994;DHT22;20673;48.980;8.138;2024-02-26T09:27:30;9.80;99.90
33994;DHT22;20673;48.980;8.138;2024-02-26T09:29:57;9.90;99.90
33994;DHT22;20673;48.980;8.138;2024-02-26T09:32:23;9.90;99.90
33994;DHT22;20673;48.980;8.138;2024-02-26T09:34:50;10.10;99.90
33994;DHT22;20673;48.980;8.138;2024-02-26T09:37:16;10.30;99.90
33994;DHT22;20673;48.980;8.138;2024-02-26T09:39:42;10.50;99.90
33994;DHT22;20673;48.980;8.138;2024-02-26T09:42:09;10.60;99.90
33994;DHT22;20673;48.980;8.138;2024-02-26T09:44:40;10.90;99.90
33994;DHT22;20673;48.980;8.138;2024-02-26T09:47:11;11.10;99.90
33994;DHT22;20673;48.980;8.138;2024-02-26T09:49:43;11.10;99.90
33994;DHT22;20673;48.980;8.138;2024-02-26T09:52:11;11.20;99.90
33994;DHT22;20673;48.980;8.138;2024-02-26T09:54:39;11.20;99.90
33994;DHT22;20673;48.980;8.138;2024-02-26T09:57:07;11.30;99.90
33994;DHT22;20673;48.980;8.138;2024-02-26T09:59:39;11.40;99.90
33994;DHT22;20673;48.980;8.138;2024-02-26T10:02:14;11.30;99.90
33994;DHT22;20673;48.980;8.138;2024-02-26T10:04:41;11.30;99.90
33994;DHT22;20673;48.980;8.138;2024-02-26T10:07:10;11.30;99.90
33994;DHT22;20673;48.980;8.138;2024-02-26T10:09:38;11.40;99.90
33994;DHT22;20673;48.980;8.138;2024-02-26T10:12:05;11.40;99.90
33994;DHT22;20673;48.980;8.138;2024-02-26T10:14:33;11.50;99.90
33994;DHT22;20673;48.980;8.138;2024-02-26T10:16:59;11.50;99.90
33994;DHT22;20673;48.980;8.138;2024-02-26T10:19:29;11.50;99.90
33994;DHT22;20673;48.980;8.138;2024-02-26T10:21:57;11.50;99.90
33994;DHT22;20673;48.980;8.138;2024-02-26T10:24:25;11.50;99.90
33994;DHT22;20673;48.980;8.138;2024-02-26T10:26:54;11.50;99.90
33994;DHT22;20673;48.980;8.138;2024-02-26T10:29:23;11.60;99.90
33994;DHT22;20673;48.980;8.138;2024-02-26T10:31:52;11.60;99.90
33994;DHT22;20673;48.980;8.138;2024-02-26T10:34:20;11.60;99.90
33994;DHT22;20673;48.980;8.138;2024-02-26T10:36:46;11.80;99.90
33994;DHT22;20673;48.980;8.138;2024-02-26T10:39:13;12.00;99.90
33994;DHT22;20673;48.980;8.138;2024-02-26T10:41:43;12.20;99.90
33994;DHT22;20673;48.980;8.138;2024-02-26T10:44:11;12.20;99.90
33994;DHT22;20673;48.980;8.138;2024-02-26T10:46:40;12.30;99.90
33994;DHT22;20673;48.980;8.138;2024-02-26T10:49:14;12.60;99.90
33994;DHT22;20673;48.980;8.138;2024-02-26T10:51:44;12.60;99.90
33994;DHT22;20673;48.980;8.138;2024-02-26T10:54:15;12.80;99.90
33994;DHT22;20673;48.980;8.138;2024-02-26T10:59:18;13.90;88.80
33994;DHT22;20673;48.980;8.138;2024-02-26T11:01:48;14.70;37.50
33994;DHT22;20673;48.980;8.138;2024-02-26T11:04:16;15.20;16.60
33994;DHT22;20673;48.980;8.138;2024-02-26T11:06:44;15.80;1.00
33994;DHT22;20673;48.980;8.138;2024-02-26T11:09:13;15.90;1.00
33994;DHT22;20673;48.980;8.138;2024-02-26T11:11:42;16.00;1.00
33994;DHT22;20673;48.980;8.138;2024-02-26T11:14:09;16.10;1.00
33994;DHT22;20673;48.980;8.138;2024-02-26T11:16:36;16.40;1.00
33994;DHT22;20673;48.980;8.138;2024-02-26T11:19:06;17.20;1.00
33994;DHT22;20673;48.980;8.138;2024-02-26T11:21:35;17.70;1.00
33994;DHT22;20673;48.980;8.138;2024-02-26T11:24:09;18.00;1.00
33994;DHT22;20673;48.980;8.138;2024-02-26T11:26:45;17.80;1.00
33994;DHT22;20673;48.980;8.138;2024-02-26T11:29:19;17.20;1.00
33994;DHT22;20673;48.980;8.138;2024-02-26T11:31:47;16.40;1.00
33994;DHT22;20673;48.980;8.138;2024-02-26T11:34:14;16.10;1.00
33994;DHT22;20673;48.980;8.138;2024-02-26T11:36:40;15.90;1.00
33994;DHT22;20673;48.980;8.138;2024-02-26T11:39:07;15.70;1.00
33994;DHT22;20673;48.980;8.138;2024-02-26T11:41:34;15.90;1.00
33994;DHT22;20673;48.980;8.138;2024-02-26T11:44:02;16.10;1.00
33994;DHT22;20673;48.980;8.138;2024-02-26T11:46:38;16.20;1.00
33994;DHT22;20673;48.980;8.138;2024-02-26T11:51:57;16.80;1.00
33994;DHT22;20673;48.980;8.138;2024-02-26T11:57:37;16.60;1.00
33994;DHT22;20673;48.980;8.138;2024-02-26T12:00:14;16.20;1.00
33994;DHT22;20673;48.980;8.138;2024-02-26T12:02:47;15.40;1.00
33994;DHT22;20673;48.980;8.138;2024-02-26T12:05:20;15.30;1.00
33994;DHT22;20673;48.980;8.138;2024-02-26T12:07:54;15.50;1.00
33994;DHT22;20673;48.980;8.138;2024-02-26T12:10:30;15.30;1.00
33994;DHT22;20673;48.980;8.138;2024-02-26T12:13:16;15.40;1.00
33994;DHT22;20673;48.980;8.138;2024-02-26T12:15:54;15.20;1.00
33994;DHT22;20673;48.980;8.138;2024-02-26T12:18:23;14.80;1.00
33994;DHT22;20673;48.980;8.138;2024-02-26T12:21:03;14.50;1.00
33994;DHT22;20673;48.980;8.138;2024-02-26T12:23:30;14.40;1.00
33994;DHT22;20673;48.980;8.138;2024-02-26T12:26:00;14.50;1.00
33994;DHT22;20673;48.980;8.138;2024-02-26T12:28:46;14.30;1.00
33994;DHT22;20673;48.980;8.138;2024-02-26T12:31:12;14.50;1.00
33994;DHT22;20673;48.980;8.138;2024-02-26T12:33:39;14.70;1.00
33994;DHT22;20673;48.980;8.138;2024-02-26T12:36:06;15.00;1.00
33994;DHT22;20673;48.980;8.138;2024-02-26T12:38:33;15.30;1.00
33994;DHT22;20673;48.980;8.138;2024-02-26T12:41:02;15.70;1.00
33994;DHT22;20673;48.980;8.138;2024-02-26T12:43:28;16.40;1.00
33994;DHT22;20673;48.980;8.138;2024-02-26T12:45:55;16.40;1.00
33994;DHT22;20673;48.980;8.138;2024-02-26T12:48:21;16.30;1.00
33994;DHT22;20673;48.980;8.138;2024-02-26T12:50:48;16.50;1.00
33994;DHT22;20673;48.980;8.138;2024-02-26T12:53:14;16.10;1.00
33994;DHT22;20673;48.980;8.138;2024-02-26T12:55:41;15.70;1.00
33994;DHT22;20673;48.980;8.138;2024-02-26T12:58:08;15.70;1.00
33994;DHT22;20673;48.980;8.138;2024-02-26T13:00:34;15.60;1.00
33994;DHT22;20673;48.980;8.138;2024-02-26T13:03:02;15.60;1.00
33994;DHT22;20673;48.980;8.138;2024-02-26T13:05:28;15.60;1.00
33994;DHT22;20673;48.980;8.138;2024-02-26T13:07:55;15.60;1.00
33994;DHT22;20673;48.980;8.138;2024-02-26T13:10:22;15.80;1.00
33994;DHT22;20673;48.980;8.138;2024-02-26T13:12:49;15.90;1.00
33994;DHT22;20673;48.980;8.138;2024-02-26T13:15:21;15.90;1.00
33994;DHT22;20673;48.980;8.138;2024-02-26T13:17:49;16.10;1.00
33994;DHT22;20673;48.980;8.138;2024-02-26T13:20:29;16.40;1.00
33994;DHT22;20673;48.980;8.138;2024-02-26T13:23:06;16.80;1.00
33994;DHT22;20673;48.980;8.138;2024-02-26T13:25:33;17.10;99.90
33994;DHT22;20673;48.980;8.138;2024-02-26T13:28:09;16.70;99.90
33994;DHT22;20673;48.980;8.138;2024-02-26T13:30:39;16.80;99.90
33994;DHT22;20673;48.980;8.138;2024-02-26T13:33:12;16.50;1.00
33994;DHT22;20673;48.980;8.138;2024-02-26T13:35:39;16.40;1.00
33994;DHT22;20673;48.980;8.138;2024-02-26T13:38:05;16.70;99.90
33994;DHT22;20673;48.980;8.138;2024-02-26T13:40:32;17.00;99.90
33994;DHT22;20673;48.980;8.138;2024-02-26T13:43:00;17.60;33.90
33994;DHT22;20673;48.980;8.138;2024-02-26T13:45:26;18.20;1.00
33994;DHT22;20673;48.980;8.138;2024-02-26T13:47:53;18.50;1.00
33994;DHT22;20673;48.980;8.138;2024-02-26T13:50:20;18.70;99.90
33994;DHT22;20673;48.980;8.138;2024-02-26T13:52:48;18.80;99.90
33994;DHT22;20673;48.980;8.138;2024-02-26T13:55:15;18.80;99.90
33994;DHT22;20673;48.980;8.138;2024-02-26T13:57:42;18.80;99.90
33994;DHT22;20673;48.980;8.138;2024-02-26T14:00:09;19.10;60.00
33994;DHT22;20673;48.980;8.138;2024-02-26T14:02:35;19.10;1.00
33994;DHT22;20673;48.980;8.138;2024-02-26T14:05:02;18.90;99.90
33994;DHT22;20673;48.980;8.138;2024-02-26T14:07:30;17.90;1.00
33994;DHT22;20673;48.980;8.138;2024-02-26T14:09:58;17.10;99.90
33994;DHT22;20673;48.980;8.138;2024-02-26T14:12:24;17.00;99.90
33994;DHT22;20673;48.980;8.138;2024-02-26T14:14:50;17.00;99.90
33994;DHT22;20673;48.980;8.138;2024-02-26T14:17:19;16.80;2.20
33994;DHT22;20673;48.980;8.138;2024-02-26T14:19:45;16.60;1.00
33994;DHT22;20673;48.980;8.138;2024-02-26T14:22:14;16.70;1.00
33994;DHT22;20673;48.980;8.138;2024-02-26T14:24:41;16.40;1.00
33994;DHT22;20673;48.980;8.138;2024-02-26T14:27:09;16.50;99.90
33994;DHT22;20673;48.980;8.138;2024-02-26T14:29:38;16.50;99.90
33994;DHT22;20673;48.980;8.138;2024-02-26T14:32:06;16.50;1.00
33994;DHT22;20673;48.980;8.138;2024-02-26T14:34:33;16.90;1.00
33994;DHT22;20673;48.980;8.138;2024-02-26T14:36:59;17.30;1.00
33994;DHT22;20673;48.980;8.138;2024-02-26T14:39:25;17.70;99.90
33994;DHT22;20673;48.980;8.138;2024-02-26T14:41:51;17.80;99.90
33994;DHT22;20673;48.980;8.138;2024-02-26T14:44:17;18.20;99.90
33994;DHT22;20673;48.980;8.138;2024-02-26T14:46:43;18.30;99.90
33994;DHT22;20673;48.980;8.138;2024-02-26T14:51:50;18.10;1.00
33994;DHT22;20673;48.980;8.138;2024-02-26T14:54:16;17.50;1.00
33994;DHT22;20673;48.980;8.138;2024-02-26T14:56:42;17.30;3.70
33994;DHT22;20673;48.980;8.138;2024-02-26T14:59:08;17.50;99.90
33994;DHT22;20673;48.980;8.138;2024-02-26T15:01:34;17.70;1.00
33994;DHT22;20673;48.980;8.138;2024-02-26T15:04:00;17.80;1.00
33994;DHT22;20673;48.980;8.138;2024-02-26T15:06:26;18.00;1.00
33994;DHT22;20673;48.980;8.138;2024-02-26T15:08:53;18.00;1.00
33994;DHT22;20673;48.980;8.138;2024-02-26T15:11:19;17.70;1.00
33994;DHT22;20673;48.980;8.138;2024-02-26T15:13:45;17.80;1.00
33994;DHT22;20673;48.980;8.138;2024-02-26T15:16:20;17.90;1.00
33994;DHT22;20673;48.980;8.138;2024-02-26T15:18:47;18.40;1.00
33994;DHT22;20673;48.980;8.138;2024-02-26T15:21:13;18.60;86.60
33994;DHT22;20673;48.980;8.138;2024-02-26T15:23:43;19.00;1.00
33994;DHT22;20673;48.980;8.138;2024-02-26T15:26:10;18.90;99.90
33994;DHT22;20673;48.980;8.138;2024-02-26T15:28:36;18.70;1.00
33994;DHT22;20673;48.980;8.138;2024-02-26T15:31:02;18.40;1.00
33994;DHT22;20673;48.980;8.138;2024-02-26T15:33:29;17.60;1.00
33994;DHT22;20673;48.980;8.138;2024-02-26T15:35:55;17.40;1.00
33994;DHT22;20673;48.980;8.138;2024-02-26T15:38:21;17.30;1.00
33994;DHT22;20673;48.980;8.138;2024-02-26T15:40:47;16.80;99.90
33994;DHT22;20673;48.980;8.138;2024-02-26T15:43:13;16.80;99.90
33994;DHT22;20673;48.980;8.138;2024-02-26T15:45:40;16.80;1.00
33994;DHT22;20673;48.980;8.138;2024-02-26T15:48:07;16.50;1.00
33994;DHT22;20673;48.980;8.138;2024-02-26T15:50:33;16.30;1.00
33994;DHT22;20673;48.980;8.138;2024-02-26T15:52:59;16.30;47.90
33994;DHT22;20673;48.980;8.138;2024-02-26T15:55:26;16.30;78.30